Strona główna
METAR-TAF:

METAR-TAF

Lotnisko :

Port lotniczy Alta Floresta

Alta Floresta, Mato Grosso, Brazylia

Szerokość geograficzna: 09-52S, Długość geograficzna: 056-06W, wysokość: 288 m

Aktualna obserwacja pogody

Raport powstał 1 godzina i 34 minut temu, godzina 18:00 UTC
Wiatr 6 kt od wschód
Temperatura 34°C
Wilgotność 44%
Ciśnienie 1013 hPa
Widzialność 10 km lub więcej
Brak chmur poniżej 1500 m i brak chmur cumulonimbus

METAR: SBAT 301800Z 10006KT CAVOK 34/20 Q1013

czas: 15:34 (19:34 UTC)

Prognoza

Raport powstał 10 godziny i 34 minut temu, godzina 09:00 UTC
Prognoza ważna od 30 godzina 12 UTC do 30 godzina 24 UTC
Wiatr 5 kt od wschód
Widzialność 10 km lub więcej
Brak chmur poniżej 1500 m i brak chmur cumulonimbus
Stopniowe zmiany
od 30 godzina 13 UTC do 30 godzina 15 UTC
Widzialność 10 km lub więcej
Rozproszone chmury na wysokości 4000 ft

TAF: SBAT 300900Z 3012/3024 09005KT CAVOK TN28/3012Z TX33/3016Z BECMG 3013/3015 9999 SCT040 RMK PDU

Obserwacja i prognoza pogody dla ponad 4000 lotnisk (raport METAR i TAF).

Dostępne stacje oznaczono żółtymi i czerwonymi punktami na mapie.

Najedź kursorem aby zobaczyć nazwę stacji.

Kliknij aby zobaczyć obserwacje i prognozy pogody.

Aby zmienić mapę: kliknij na zielony przycisk z czarnym krzyżykiem, aby powiększyć; na zielony przycisk z myślnikiem, aby pomniejszyć; na zielone strzałki, aby przejść do map sąsiednich.


METAR-TAF: